Time;durP1;ratioP1;P1;durP2;ratioP2;P2;SDS_P1;SDS_P2;PMS_P1;PMS_P2;Temp;Humidity;BMP_temperature;BMP_pressure;BME280_temperature;BME280_humidity;BME280_pressure;Samples;Min_cycle;Max_cycle;Signal;HPM_P1;HPM_P2
2023/10/26 00:02:03;;;;;;;8.95;8.00;;;;;;;15.80;70.15;99143.25;4945863;28;97599;-77
2023/10/26 00:04:30;;;;;;;12.65;8.88;;;;;;;15.94;70.24;99134.13;4948131;28;98603;-77
2023/10/26 00:06:58;;;;;;;13.10;7.80;;;;;;;16.06;69.96;99149.06;4946487;28;99292;-80
2023/10/26 00:09:24;;;;;;;10.57;7.95;;;;;;;15.94;70.65;99136.78;4947178;28;96785;-77
2023/10/26 00:11:51;;;;;;;11.38;8.52;;;;;;;16.06;70.40;99133.09;4948793;28;97477;-77
2023/10/26 00:14:17;;;;;;;11.95;8.60;;;;;;;16.01;71.48;99131.78;4947637;28;99401;-77
2023/10/26 00:16:43;;;;;;;11.95;8.60;;;;;;;16.12;70.79;99126.41;4944751;28;98853;-77
2023/10/26 00:19:11;;;;;;;11.07;8.18;;;;;;;15.93;71.46;99129.75;4945359;28;97753;-77
2023/10/26 00:21:38;;;;;;;10.77;8.27;;;;;;;16.22;70.37;99128.16;4949145;28;97089;-77
2023/10/26 00:24:05;;;;;;;19.00;8.75;;;;;;;16.25;70.05;99122.56;4951287;28;99274;-77
2023/10/26 00:26:31;;;;;;;14.98;9.65;;;;;;;16.02;71.20;99128.97;4948983;28;98970;-77
2023/10/26 00:28:57;;;;;;;12.07;8.48;;;;;;;16.12;71.14;99131.72;4947366;28;98149;-77
2023/10/26 00:31:24;;;;;;;12.93;9.68;;;;;;;15.98;71.80;99122.22;4951054;28;96745;-84
2023/10/26 00:33:50;;;;;;;14.00;8.93;;;;;;;16.01;71.43;99119.31;4960334;28;99320;-84
2023/10/26 00:36:17;;;;;;;12.93;9.32;;;;;;;15.92;72.03;99115.59;4949561;28;98002;-84
2023/10/26 00:38:43;;;;;;;21.35;10.00;;;;;;;15.83;72.81;99115.50;4943160;28;97222;-86
2023/10/26 00:41:10;;;;;;;12.13;9.63;;;;;;;15.91;72.56;99119.22;4954267;28;98793;-82
2023/10/26 00:43:36;;;;;;;17.25;10.05;;;;;;;15.76;72.93;99111.63;4961932;28;97782;-83
2023/10/26 00:46:03;;;;;;;14.48;10.10;;;;;;;15.81;73.08;99114.78;4955125;28;102222;-83
2023/10/26 00:48:30;;;;;;;14.70;10.30;;;;;;;15.84;73.19;99102.06;4958585;28;96868;-84
2023/10/26 00:50:57;;;;;;;17.70;10.27;;;;;;;15.81;73.11;99105.00;4957983;28;97065;-82
2023/10/26 00:53:24;;;;;;;14.80;9.70;;;;;;;15.78;73.36;99096.38;4941076;28;100713;-82
2023/10/26 00:55:52;;;;;;;12.43;9.43;;;;;;;15.94;72.49;99096.81;4956617;28;99431;-82
2023/10/26 00:58:20;;;;;;;13.30;10.13;;;;;;;15.86;72.90;99094.78;4942528;28;96789;-81
2023/10/26 01:00:47;;;;;;;14.65;10.27;;;;;;;15.67;73.72;99091.97;4947778;28;99185;-81
2023/10/26 01:03:14;;;;;;;13.70;9.65;;;;;;;15.79;73.75;99090.09;4949107;28;98143;-81
2023/10/26 01:05:40;;;;;;;12.23;9.80;;;;;;;15.74;73.60;99086.97;4946492;28;99125;-81
2023/10/26 01:08:07;;;;;;;14.48;9.93;;;;;;;15.76;73.70;99088.53;4953217;28;96906;-81
2023/10/26 01:10:36;;;;;;;15.82;10.95;;;;;;;15.92;73.47;99086.28;4955519;28;96755;-80
2023/10/26 01:13:04;;;;;;;18.60;10.60;;;;;;;16.00;73.17;99075.00;4954515;28;100414;-81
2023/10/26 01:15:30;;;;;;;17.15;10.68;;;;;;;16.02;73.14;99078.34;4955262;28;97988;-80
2023/10/26 01:17:57;;;;;;;16.48;10.77;;;;;;;15.88;72.76;99070.69;4943813;28;96753;-81
2023/10/26 01:20:23;;;;;;;16.50;11.48;;;;;;;15.95;73.37;99061.19;4952476;28;97353;-80
2023/10/26 01:22:51;;;;;;;18.85;11.02;;;;;;;16.10;72.73;99072.38;4948309;28;99739;-81
2023/10/26 01:25:17;;;;;;;13.90;10.98;;;;;;;16.08;72.67;99061.03;4951235;28;98823;-81
2023/10/26 01:27:44;;;;;;;15.55;11.00;;;;;;;16.10;72.42;99062.56;4954282;28;97678;-81
2023/10/26 01:30:12;;;;;;;13.43;11.30;;;;;;;16.01;72.80;99063.38;4951112;28;96816;-81
2023/10/26 01:32:39;;;;;;;17.70;11.35;;;;;;;16.08;72.52;99061.03;4951319;28;99408;-81
2023/10/26 01:35:06;;;;;;;14.23;11.20;;;;;;;16.07;72.43;99060.19;4950303;28;97781;-81
2023/10/26 01:37:32;;;;;;;15.38;11.65;;;;;;;15.91;73.09;99055.28;4949201;28;96773;-81
2023/10/26 01:40:00;;;;;;;14.93;11.50;;;;;;;16.00;72.88;99053.69;4948631;28;97258;-81
2023/10/26 01:42:26;;;;;;;13.15;10.65;;;;;;;15.98;73.02;99049.44;4939864;28;98177;-82
2023/10/26 01:44:53;;;;;;;15.95;10.80;;;;;;;16.05;72.49;99051.47;4948921;28;97689;-82
2023/10/26 01:47:19;;;;;;;16.55;11.20;;;;;;;15.85;72.95;99046.97;4944274;28;97708;-78
2023/10/26 01:49:45;;;;;;;15.82;10.85;;;;;;;16.05;72.47;99046.13;4948639;28;97011;-78
2023/10/26 01:52:12;;;;;;;15.57;11.00;;;;;;;16.13;72.02;99041.00;4945780;28;101401;-78
2023/10/26 01:54:38;;;;;;;14.75;11.43;;;;;;;16.26;71.59;99052.31;4947601;28;99231;-78
2023/10/26 01:57:06;;;;;;;15.07;11.27;;;;;;;16.09;72.16;99041.38;4946864;28;96749;-79
2023/10/26 01:59:32;;;;;;;14.98;11.27;;;;;;;16.03;71.65;99037.41;4940912;28;97056;-79
2023/10/26 02:01:59;;;;;;;16.75;12.18;;;;;;;15.83;73.09;99035.59;4943844;28;98785;-81
2023/10/26 02:04:25;;;;;;;14.45;11.70;;;;;;;16.06;72.49;99045.16;4947703;28;99356;-81
2023/10/26 02:06:51;;;;;;;16.17;11.88;;;;;;;16.04;72.19;99038.28;4951460;28;96893;-80
2023/10/26 02:09:18;;;;;;;14.05;11.82;;;;;;;16.08;72.24;99035.19;4952414;28;96861;-81
2023/10/26 02:11:44;;;;;;;16.90;12.38;;;;;;;16.02;72.65;99034.88;4949146;28;102069;-81
2023/10/26 02:14:12;;;;;;;17.02;12.02;;;;;;;16.18;72.28;99036.13;4944951;28;101204;-81
2023/10/26 02:16:38;;;;;;;16.08;12.43;;;;;;;16.13;72.02;99033.00;4945610;28;97550;-80
2023/10/26 02:19:05;;;;;;;16.75;12.85;;;;;;;15.95;72.83;99029.22;4953712;28;96885;-80
2023/10/26 02:21:31;;;;;;;18.08;12.25;;;;;;;15.86;73.50;99030.03;4945347;28;98654;-80
2023/10/26 02:23:57;;;;;;;18.75;12.65;;;;;;;15.82;72.96;99025.91;4955197;28;98817;-80
2023/10/26 02:26:24;;;;;;;17.38;12.50;;;;;;;15.85;73.35;99023.00;4942328;28;97168;-80
2023/10/26 02:28:50;;;;;;;16.52;11.35;;;;;;;16.09;72.53;99020.91;4946286;28;96851;-80
2023/10/26 02:31:18;;;;;;;16.15;12.32;;;;;;;15.89;72.91;99024.41;4944582;28;99253;-80
2023/10/26 02:33:44;;;;;;;17.50;12.88;;;;;;;16.13;72.15;99017.03;4948127;28;99274;-80
2023/10/26 02:36:10;;;;;;;16.52;13.30;;;;;;;16.03;72.97;99018.78;4948624;28;96932;-81
2023/10/26 02:38:37;;;;;;;16.55;12.90;;;;;;;16.09;72.54;99020.91;4948203;28;96892;-81
2023/10/26 02:41:04;;;;;;;17.50;12.23;;;;;;;16.19;72.35;99020.97;4946760;28;97800;-78
2023/10/26 02:43:31;;;;;;;15.65;12.38;;;;;;;16.18;72.18;99019.28;4949489;28;97856;-79
2023/10/26 02:46:02;;;;;;;16.00;12.43;;;;;;;16.26;71.46;99022.16;4953092;28;97375;-81
2023/10/26 02:48:29;;;;;;;16.85;12.63;;;;;;;16.03;72.14;99010.78;4944559;28;96918;-80
2023/10/26 02:50:56;;;;;;;17.02;12.85;;;;;;;16.00;72.90;99021.72;4948024;28;99591;-81
2023/10/26 02:53:22;;;;;;;19.45;13.80;;;;;;;16.18;72.36;99013.97;4953212;28;98920;-81
2023/10/26 02:55:49;;;;;;;18.83;13.07;;;;;;;16.00;72.77;99011.06;4945763;28;96737;-80
2023/10/26 02:58:15;;;;;;;19.08;13.43;;;;;;;15.88;73.26;99012.91;4954760;28;97355;-81
2023/10/26 03:00:42;;;;;;;15.85;12.75;;;;;;;16.01;73.55;99006.56;4947509;28;101846;-82
2023/10/26 03:03:08;;;;;;;19.27;13.63;;;;;;;16.03;72.64;99000.13;4955158;28;98311;-80
2023/10/26 03:05:38;;;;;;;18.75;13.63;;;;;;;15.95;73.74;98998.09;4953271;28;98467;-80
2023/10/26 03:08:05;;;;;;;19.08;13.05;;;;;;;16.22;72.42;99007.38;4944751;28;97281;-80
2023/10/26 03:10:31;;;;;;;20.38;13.60;;;;;;;16.10;72.14;99005.78;4952198;28;98925;-81
2023/10/26 03:12:58;;;;;;;19.13;14.40;;;;;;;16.10;72.58;99009.28;4960282;28;98115;-78
2023/10/26 03:15:24;;;;;;;19.23;13.63;;;;;;;16.13;73.13;99005.53;4949663;28;96797;-78
2023/10/26 03:17:50;;;;;;;20.65;14.80;;;;;;;16.18;72.78;99003.31;4950984;28;97470;-78
2023/10/26 03:20:17;;;;;;;19.10;13.75;;;;;;;16.27;71.92;99003.38;4947862;28;101465;-79
2023/10/26 03:22:44;;;;;;;18.63;14.18;;;;;;;16.18;72.35;99004.16;4948923;28;98848;-78
2023/10/26 03:25:13;;;;;;;19.95;14.02;;;;;;;16.13;72.49;99006.38;4949636;28;96723;-78
2023/10/26 03:27:40;;;;;;;18.63;14.10;;;;;;;16.19;72.30;99005.84;4948166;28;98768;-78
2023/10/26 03:30:08;;;;;;;21.58;13.43;;;;;;;16.14;72.70;99002.72;4948642;28;99018;-78
2023/10/26 03:32:34;;;;;;;17.10;13.35;;;;;;;15.89;73.46;98997.78;4949771;28;99097;-78
2023/10/26 03:35:00;;;;;;;15.20;12.32;;;;;;;15.96;73.07;99004.28;4949311;28;96859;-81
2023/10/26 03:37:27;;;;;;;17.38;12.98;;;;;;;16.14;72.74;99007.22;4948913;28;96879;-79
2023/10/26 03:39:55;;;;;;;17.95;13.27;;;;;;;15.90;72.95;99010.13;4939323;28;99699;-79
2023/10/26 03:42:21;;;;;;;19.00;13.55;;;;;;;16.00;72.99;99005.72;4949595;28;99264;-79
2023/10/26 03:44:48;;;;;;;17.30;12.93;;;;;;;16.03;73.15;99009.94;4951611;28;96767;-79
2023/10/26 03:47:14;;;;;;;20.70;13.95;;;;;;;16.10;73.17;99005.78;4950244;28;96751;-80
2023/10/26 03:49:41;;;;;;;18.85;13.38;;;;;;;15.92;73.61;99008.19;4952309;28;98857;-79
2023/10/26 03:52:07;;;;;;;21.27;13.82;;;;;;;15.71;75.14;99008.19;4949156;28;101618;-78
2023/10/26 03:54:34;;;;;;;20.08;13.52;;;;;;;15.80;74.94;99003.91;4946634;28;96742;-78
2023/10/26 03:57:02;;;;;;;22.50;13.63;;;;;;;15.71;74.98;99002.00;4948477;28;100223;-79
2023/10/26 03:59:28;;;;;;;19.85;12.73;;;;;;;15.95;74.51;98999.94;4948957;28;98343;-80
2023/10/26 04:01:55;;;;;;;20.17;12.88;;;;;;;15.87;74.40;98995.28;4950284;28;98245;-79
2023/10/26 04:04:21;;;;;;;15.63;12.30;;;;;;;15.90;74.17;98988.81;4955491;28;98027;-79
2023/10/26 04:06:47;;;;;;;16.80;12.60;;;;;;;16.02;73.86;98987.78;4955365;28;97235;-80
2023/10/26 04:09:14;;;;;;;15.48;12.38;;;;;;;16.02;73.84;98992.25;4946844;28;99038;-79
2023/10/26 04:11:42;;;;;;;16.13;12.18;;;;;;;16.07;73.79;98990.91;4953524;28;99310;-80
2023/10/26 04:14:11;;;;;;;15.57;12.27;;;;;;;16.12;73.92;98990.50;4956449;28;96816;-78
2023/10/26 04:16:37;;;;;;;19.48;12.30;;;;;;;16.02;73.86;98987.78;4941956;28;97900;-78
2023/10/26 04:19:03;;;;;;;17.05;12.23;;;;;;;16.25;73.46;98988.47;4950868;28;99046;-79
2023/10/26 04:21:30;;;;;;;15.98;11.90;;;;;;;16.15;74.12;98993.75;4947939;28;98088;-78
2023/10/26 04:23:57;;;;;;;15.88;12.10;;;;;;;16.18;73.80;98985.50;4942248;28;97102;-78
2023/10/26 04:26:24;;;;;;;16.85;12.15;;;;;;;16.23;73.07;98991.25;4948879;28;96829;-78
2023/10/26 04:28:50;;;;;;;18.40;13.38;;;;;;;16.05;74.58;98992.00;4948414;28;99082;-78
2023/10/26 04:31:18;;;;;;;17.88;13.38;;;;;;;16.06;74.20;98975.91;4942203;28;99171;-79
2023/10/26 04:33:44;;;;;;;14.70;11.90;;;;;;;16.33;73.37;98978.84;4950356;28;96840;-78
2023/10/26 04:36:11;;;;;;;16.27;12.20;;;;;;;16.16;73.87;98981.25;4949965;28;97881;-79
2023/10/26 04:38:37;;;;;;;20.15;12.75;;;;;;;16.26;73.72;98974.19;4951241;28;98977;-80
2023/10/26 04:41:05;;;;;;;18.83;12.82;;;;;;;16.31;73.48;98977.28;4951468;28;99069;-80
2023/10/26 04:43:32;;;;;;;16.55;12.15;;;;;;;16.26;72.82;98975.03;4950185;28;96869;-81
2023/10/26 04:45:58;;;;;;;15.77;12.07;;;;;;;15.96;73.83;98967.00;4943191;28;97139;-80
2023/10/26 04:48:26;;;;;;;16.38;12.52;;;;;;;16.07;74.51;98974.94;4953441;28;98187;-79
2023/10/26 04:50:52;;;;;;;14.32;11.55;;;;;;;16.16;73.83;98974.13;4945527;28;99109;-78
2023/10/26 04:53:19;;;;;;;14.40;11.05;;;;;;;16.13;73.40;98973.56;4948230;28;97152;-78
2023/10/26 04:55:45;;;;;;;14.98;11.70;;;;;;;16.20;73.15;98964.06;4941203;28;97361;-80
2023/10/26 04:58:11;;;;;;;24.55;12.50;;;;;;;16.14;73.47;98965.44;4946703;28;98740;-79
2023/10/26 05:00:38;;;;;;;15.43;12.18;;;;;;;16.17;73.16;98958.97;4952351;28;98700;-80
2023/10/26 05:03:04;;;;;;;17.98;12.32;;;;;;;16.03;73.76;98968.16;4948318;28;97168;-80
2023/10/26 05:05:32;;;;;;;16.67;12.68;;;;;;;16.04;73.80;98972.50;4948266;28;96873;-79
2023/10/26 05:07:58;;;;;;;16.45;12.60;;;;;;;16.08;73.95;98967.78;4948678;28;99262;-80
2023/10/26 05:10:25;;;;;;;17.15;12.32;;;;;;;16.06;74.46;98967.91;4948691;28;100683;-80
2023/10/26 05:12:52;;;;;;;16.98;12.57;;;;;;;15.87;74.01;98963.31;4947680;28;96905;-80
2023/10/26 05:15:19;;;;;;;17.27;11.95;;;;;;;15.92;74.01;98973.56;4948473;28;96853;-80
2023/10/26 05:17:46;;;;;;;19.35;12.90;;;;;;;15.67;74.60;98960.66;4948156;28;100822;-79
2023/10/26 05:20:16;;;;;;;18.40;13.10;;;;;;;15.91;74.53;98958.56;4949047;28;99306;-80
2023/10/26 05:22:43;;;;;;;17.48;13.35;;;;;;;15.96;74.24;98972.31;4954243;28;96877;-83
2023/10/26 05:25:11;;;;;;;15.30;12.30;;;;;;;15.91;74.40;98962.06;4946793;28;96734;-83
2023/10/26 05:27:37;;;;;;;16.17;12.50;;;;;;;15.77;74.82;98967.72;4951962;28;97078;-83
2023/10/26 05:30:05;;;;;;;15.88;12.20;;;;;;;15.81;73.90;98966.50;4955066;28;99056;-83
2023/10/26 05:32:32;;;;;;;15.02;11.30;;;;;;;15.97;73.61;98963.34;4954112;28;98720;-83
2023/10/26 05:34:59;;;;;;;19.90;12.90;;;;;;;15.92;74.08;98957.59;4962519;28;96686;-82
2023/10/26 05:37:25;;;;;;;18.65;11.52;;;;;;;15.72;74.82;98959.28;4952653;28;98139;-82
2023/10/26 05:39:53;;;;;;;15.43;12.30;;;;;;;16.04;73.49;98967.19;4956986;28;98826;-81
2023/10/26 05:42:19;;;;;;;16.23;12.38;;;;;;;16.05;73.67;98960.88;4959265;28;96827;-84
2023/10/26 05:44:46;;;;;;;16.05;12.07;;;;;;;15.82;74.18;98954.00;4953935;28;96639;-79
2023/10/26 05:47:12;;;;;;;15.75;11.68;;;;;;;15.88;74.22;98958.84;4958678;28;98697;-82
2023/10/26 05:49:39;;;;;;;15.60;11.95;;;;;;;15.93;73.74;98956.63;4947029;28;99424;-82
2023/10/26 05:52:05;;;;;;;14.77;11.15;;;;;;;15.84;73.84;98970.69;4952157;28;97689;-80
2023/10/26 05:54:32;;;;;;;14.18;11.23;;;;;;;15.94;73.68;98969.81;4951495;28;98318;-80
2023/10/26 05:57:00;;;;;;;16.27;11.68;;;;;;;16.00;73.43;98968.44;4956056;28;98319;-82
2023/10/26 05:59:27;;;;;;;13.80;11.05;;;;;;;15.83;74.29;98969.84;4949217;28;96987;-81
2023/10/26 06:01:54;;;;;;;14.88;11.07;;;;;;;15.91;73.97;98969.22;4949559;28;96801;-81
2023/10/26 06:04:20;;;;;;;13.82;10.43;;;;;;;15.93;73.91;98972.59;4952969;28;96714;-80
2023/10/26 06:06:46;;;;;;;16.42;11.73;;;;;;;15.94;74.21;98976.94;4951090;28;98841;-81
2023/10/26 06:09:13;;;;;;;15.18;10.10;;;;;;;16.02;73.27;98974.44;4947971;28;99145;-81
2023/10/26 06:11:40;;;;;;;15.05;10.77;;;;;;;15.89;73.81;98977.31;4947297;28;96787;-79
2023/10/26 06:14:08;;;;;;;14.95;10.80;;;;;;;15.84;74.54;98978.69;4948244;28;97086;-80
2023/10/26 06:16:35;;;;;;;13.73;10.70;;;;;;;15.88;74.56;98980.13;4949398;28;98908;-79
2023/10/26 06:19:01;;;;;;;15.20;10.50;;;;;;;16.04;73.94;98977.84;4947814;28;98914;-80
2023/10/26 06:21:28;;;;;;;14.88;10.23;;;;;;;16.11;73.40;98981.66;4941432;28;96828;-81
2023/10/26 06:23:55;;;;;;;11.52;9.15;;;;;;;16.05;73.22;98976.88;4949486;28;96905;-81
2023/10/26 06:26:21;;;;;;;13.65;9.80;;;;;;;16.05;72.98;98992.00;4949235;28;99393;-78
2023/10/26 06:28:47;;;;;;;12.60;9.50;;;;;;;15.94;73.24;98988.44;4940973;28;99205;-82
2023/10/26 06:31:15;;;;;;;11.25;9.40;;;;;;;15.95;73.71;98992.78;4948662;28;97271;-80
2023/10/26 06:33:43;;;;;;;11.93;9.52;;;;;;;15.91;74.25;98986.03;4959622;28;96822;-84
2023/10/26 06:36:10;;;;;;;14.77;10.13;;;;;;;16.06;73.42;98997.22;4964953;28;99246;-83
2023/10/26 06:38:36;;;;;;;13.20;9.38;;;;;;;16.10;73.26;98990.63;4955589;28;96825;-83
2023/10/26 06:41:03;;;;;;;12.10;8.77;;;;;;;16.09;73.17;98993.41;4946522;28;96812;-75
2023/10/26 06:43:30;;;;;;;11.27;8.73;;;;;;;16.07;73.38;98988.25;4945834;28;96924;-79
2023/10/26 06:45:56;;;;;;;10.77;8.98;;;;;;;16.13;72.48;98992.19;4954963;28;98874;-87
2023/10/26 06:48:24;;;;;;;11.38;8.88;;;;;;;15.93;73.43;98991.25;4965542;28;96818;-78
2023/10/26 06:50:58;;;;;;;13.88;9.07;;;;;;;16.00;73.83;98995.06;4952381;28;97190;-78
2023/10/26 06:53:25;;;;;;;11.57;9.07;;;;;;;16.08;72.98;99000.56;4945210;28;96982;-76
2023/10/26 06:55:52;;;;;;;13.18;9.80;;;;;;;15.97;73.15;99000.66;4946997;28;98749;-76
2023/10/26 06:58:18;;;;;;;10.75;8.90;;;;;;;15.89;74.10;98998.63;4951328;28;97764;-78
2023/10/26 07:00:45;;;;;;;11.43;9.05;;;;;;;16.06;73.70;99005.19;4953448;28;97192;-78
2023/10/26 07:03:11;;;;;;;13.38;10.07;;;;;;;16.03;73.47;98996.59;4956391;28;96931;-78
2023/10/26 07:05:39;;;;;;;12.68;9.48;;;;;;;16.02;73.83;99002.91;4950356;28;101414;-76
2023/10/26 07:08:05;;;;;;;11.95;9.00;;;;;;;16.05;73.32;99008.00;4947766;28;101984;-79
2023/10/26 07:10:32;;;;;;;12.25;9.38;;;;;;;16.17;73.41;99006.94;4950272;28;97296;-83
2023/10/26 07:12:59;;;;;;;12.45;8.93;;;;;;;16.25;73.30;99015.97;4951107;28;96855;-79
2023/10/26 07:15:25;;;;;;;14.07;9.10;;;;;;;16.19;73.46;99015.66;4949937;28;101232;-81
2023/10/26 07:17:53;;;;;;;12.57;9.43;;;;;;;16.33;73.14;99023.31;4956875;28;99888;-72
2023/10/26 07:20:20;;;;;;;14.70;10.02;;;;;;;16.20;72.93;99012.88;4950691;28;96746;-72
2023/10/26 07:22:48;;;;;;;12.98;9.55;;;;;;;16.27;72.65;99019.34;4948955;28;97060;-84
2023/10/26 07:25:14;;;;;;;11.05;8.90;;;;;;;16.22;72.95;99018.88;4952825;28;99140;-84
2023/10/26 07:27:41;;;;;;;13.05;8.90;;;;;;;16.31;73.16;99020.78;4951070;28;98768;-84
2023/10/26 07:30:08;;;;;;;13.75;8.95;;;;;;;16.46;72.24;99023.94;4957148;28;96872;-83
2023/10/26 07:32:34;;;;;;;14.38;9.55;;;;;;;16.31;72.54;99020.78;4952606;28;98035;-83
2023/10/26 07:35:01;;;;;;;12.07;9.20;;;;;;;16.35;72.29;99032.84;4955807;28;101768;-83
2023/10/26 07:37:29;;;;;;;14.10;10.20;;;;;;;16.45;71.78;99032.91;4957749;28;101480;-82
2023/10/26 07:39:57;;;;;;;11.38;9.02;;;;;;;16.41;71.85;99036.00;4960685;28;97536;-85
2023/10/26 07:42:23;;;;;;;12.45;9.55;;;;;;;16.24;72.38;99034.75;4954624;28;96771;-85
2023/10/26 07:44:54;;;;;;;11.32;9.38;;;;;;;16.28;72.13;99031.69;4961278;28;97625;-84
2023/10/26 07:47:20;;;;;;;11.93;9.60;;;;;;;16.42;72.25;99034.97;4950832;28;100226;-82
2023/10/26 07:49:47;;;;;;;13.70;9.95;;;;;;;16.30;72.76;99037.75;4958293;28;96978;-82
2023/10/26 07:52:14;;;;;;;14.52;10.15;;;;;;;16.32;72.44;99042.94;4960220;28;97773;-83
2023/10/26 07:54:40;;;;;;;12.45;9.82;;;;;;;16.38;72.58;99034.41;4954400;28;100341;-83
2023/10/26 07:57:08;;;;;;;14.45;10.02;;;;;;;16.45;71.86;99035.56;4954693;28;97831;-82
2023/10/26 07:59:34;;;;;;;12.45;10.45;;;;;;;16.35;71.98;99035.50;4961898;28;97027;-85
2023/10/26 08:02:01;;;;;;;15.23;11.15;;;;;;;16.25;72.25;99036.44;4951880;28;96784;-82
2023/10/26 08:04:32;;;;;;;14.98;11.35;;;;;;;16.34;72.29;99044.47;4955841;28;99559;-81
2023/10/26 08:06:58;;;;;;;13.40;11.25;;;;;;;16.40;71.39;99050.28;4951021;28;101450;-81
2023/10/26 08:09:26;;;;;;;16.85;11.65;;;;;;;16.43;71.98;99060.66;4948886;28;97332;-82
2023/10/26 08:11:52;;;;;;;16.67;11.90;;;;;;;16.35;72.36;99046.19;4947063;28;97756;-81
2023/10/26 08:14:20;;;;;;;17.45;13.60;;;;;;;16.40;72.21;99055.63;4948779;28;99204;-81
2023/10/26 08:16:46;;;;;;;14.77;11.00;;;;;;;16.47;72.68;99049.63;4948130;28;98800;-83
2023/10/26 08:19:13;;;;;;;17.35;11.02;;;;;;;16.51;71.69;99044.88;4946711;28;97066;-82
2023/10/26 08:21:40;;;;;;;16.65;12.35;;;;;;;16.46;71.69;99057.75;4946196;28;97089;-83
2023/10/26 08:24:07;;;;;;;16.58;12.07;;;;;;;16.52;71.55;99057.22;4955021;28;98906;-84
2023/10/26 08:26:33;;;;;;;20.17;14.35;;;;;;;16.52;71.75;99060.72;4953340;28;98896;-83
2023/10/26 08:29:00;;;;;;;16.42;11.68;;;;;;;16.46;72.07;99063.94;4948434;28;98162;-81
2023/10/26 08:31:34;;;;;;;19.45;11.43;;;;;;;16.54;72.24;99065.94;4953016;28;97206;-82
2023/10/26 08:34:00;;;;;;;13.73;10.65;;;;;;;16.65;71.47;99071.22;4955172;28;101384;-84
2023/10/26 08:36:27;;;;;;;18.27;12.88;;;;;;;16.50;71.79;99076.00;4951175;28;97008;-85
2023/10/26 08:38:53;;;;;;;14.60;11.30;;;;;;;16.48;71.15;99079.78;4953105;28;97286;-84
2023/10/26 08:41:21;;;;;;;19.30;11.40;;;;;;;16.50;72.06;99085.81;4953527;28;96854;-83
2023/10/26 08:43:47;;;;;;;13.63;10.68;;;;;;;16.49;71.27;99082.31;4949905;28;99336;-84
2023/10/26 08:46:18;;;;;;;14.82;10.82;;;;;;;16.70;71.69;99079.66;4949261;28;99239;-85
2023/10/26 08:48:48;;;;;;;15.75;11.63;;;;;;;16.89;71.05;99084.22;4951996;28;99743;-85
2023/10/26 08:51:14;;;;;;;15.30;10.90;;;;;;;16.48;71.63;99077.09;4951708;28;97375;-85
2023/10/26 08:53:41;;;;;;;13.70;10.57;;;;;;;16.66;71.71;99078.25;4951537;28;101697;-81
2023/10/26 08:56:09;;;;;;;15.80;10.38;;;;;;;16.74;71.20;99086.41;4955224;28;98103;-83
2023/10/26 08:58:36;;;;;;;14.07;10.85;;;;;;;16.74;70.95;99089.06;4955698;28;96871;-84
2023/10/26 09:01:04;;;;;;;16.10;11.45;;;;;;;16.74;71.83;99097.06;4953346;28;96745;-84
2023/10/26 09:03:31;;;;;;;16.92;10.43;;;;;;;16.59;72.59;99090.38;4956762;28;97813;-84
2023/10/26 09:05:58;;;;;;;14.48;10.88;;;;;;;16.80;71.94;99099.22;4953722;28;98066;-85
2023/10/26 09:08:27;;;;;;;14.05;10.75;;;;;;;17.03;70.51;99098.06;4947874;28;97562;-82
2023/10/26 09:10:54;;;;;;;13.88;10.80;;;;;;;17.19;70.15;99102.03;4944879;28;97313;-84
2023/10/26 09:13:24;;;;;;;14.70;10.52;;;;;;;17.02;70.00;99101.69;4949526;28;102103;-83
2023/10/26 09:15:53;;;;;;;13.52;10.55;;;;;;;16.99;69.98;99104.66;4949636;28;99475;-83
2023/10/26 09:18:21;;;;;;;18.17;10.95;;;;;;;16.81;71.16;99100.88;4948049;28;97137;-81
2023/10/26 09:21:04;;;;;;;13.77;10.65;;;;;;;16.85;70.90;99107.66;4950201;28;96926;-81
2023/10/26 09:23:32;;;;;;;13.65;10.27;;;;;;;16.94;70.47;99112.19;4952545;28;100978;-82
2023/10/26 09:25:59;;;;;;;18.02;10.68;;;;;;;16.93;70.96;99104.34;4947582;28;99377;-81
2023/10/26 09:28:26;;;;;;;13.30;10.30;;;;;;;16.80;71.56;99107.22;4944276;28;97343;-82
2023/10/26 09:30:59;;;;;;;14.55;10.13;;;;;;;16.61;73.11;99107.09;4945738;28;97588;-83
2023/10/26 09:33:27;;;;;;;13.80;10.10;;;;;;;16.83;72.46;99106.94;4949436;28;102315;-84
2023/10/26 09:35:53;;;;;;;13.32;10.70;;;;;;;17.00;71.20;99110.81;4954476;28;98884;-83
2023/10/26 09:38:36;;;;;;;14.13;10.35;;;;;;;17.13;70.26;99114.94;4945745;28;96881;-83
2023/10/26 09:41:05;;;;;;;13.07;10.13;;;;;;;17.10;70.75;99117.03;4950577;28;97062;-82
2023/10/26 09:43:32;;;;;;;16.08;10.32;;;;;;;17.25;70.10;99118.34;4947122;28;98210;-82
2023/10/26 09:45:59;;;;;;;11.90;9.23;;;;;;;17.24;69.74;99116.66;4947380;28;100236;-82
2023/10/26 09:48:26;;;;;;;14.15;9.20;;;;;;;17.20;70.02;99114.41;4942761;28;97393;-82
2023/10/26 09:50:53;;;;;;;13.82;10.00;;;;;;;16.96;70.62;99120.91;4950611;28;96927;-82
2023/10/26 09:53:21;;;;;;;11.00;9.65;;;;;;;17.16;69.82;99124.50;4950283;28;99294;-82
2023/10/26 09:55:50;;;;;;;14.70;10.02;;;;;;;17.24;69.03;99131.84;4954010;28;98858;-82
2023/10/26 09:58:18;;;;;;;16.92;9.95;;;;;;;16.72;71.27;99125.72;4939520;28;96773;-81
2023/10/26 10:00:44;;;;;;;12.73;9.10;;;;;;;16.90;71.64;99129.44;4945711;28;96745;-82
2023/10/26 10:03:12;;;;;;;13.80;9.68;;;;;;;17.00;70.66;99129.50;4947547;28;99509;-82
2023/10/26 10:05:39;;;;;;;13.85;9.18;;;;;;;16.96;70.35;99128.91;4950033;28;97333;-82
2023/10/26 10:08:06;;;;;;;11.50;8.50;;;;;;;16.80;70.99;99125.91;4947263;28;96751;-82
2023/10/26 10:10:33;;;;;;;12.85;9.55;;;;;;;16.66;71.78;99126.25;4938396;28;99862;-83
2023/10/26 10:13:01;;;;;;;15.05;10.15;;;;;;;17.09;71.06;99128.69;4945336;28;98797;-83
2023/10/26 10:15:39;;;;;;;13.10;9.38;;;;;;;16.93;70.86;99125.69;4948618;28;100469;-84
2023/10/26 10:18:06;;;;;;;13.70;9.55;;;;;;;17.18;70.28;99124.38;4951873;28;97723;-82
2023/10/26 10:20:34;;;;;;;10.80;8.90;;;;;;;17.19;70.49;99123.41;4946565;28;97073;-83
2023/10/26 10:23:02;;;;;;;14.23;9.20;;;;;;;17.16;70.57;99120.97;4953738;28;101007;-82
2023/10/26 10:26:02;;;;;;;12.32;8.18;;;;;;;17.35;69.16;99123.72;4948910;28;98764;-82
2023/10/26 10:28:48;;;;;;;10.38;7.68;;;;;;;17.33;69.10;99129.19;4948815;28;98656;-82
2023/10/26 10:31:22;;;;;;;13.90;8.67;;;;;;;17.26;69.82;99124.53;4950858;28;96840;-81
2023/10/26 10:33:48;;;;;;;14.20;8.73;;;;;;;17.38;69.96;99126.13;4951660;28;101892;-83
2023/10/26 10:36:15;;;;;;;12.10;8.98;;;;;;;17.46;69.11;99127.09;4949003;28;97505;-83
2023/10/26 10:38:41;;;;;;;10.52;8.10;;;;;;;17.55;67.90;99130.78;4949549;28;98650;-81
2023/10/26 10:41:10;;;;;;;13.68;8.88;;;;;;;17.56;67.76;99137.81;4950303;28;96842;-81
2023/10/26 10:43:40;;;;;;;13.88;9.48;;;;;;;17.57;67.97;99133.34;4947922;28;98933;-79
2023/10/26 10:46:12;;;;;;;14.85;11.77;;;;;;;17.19;69.29;99126.06;4946648;28;98836;-83
2023/10/26 10:48:57;;;;;;;14.68;10.35;;;;;;;17.44;68.13;99121.09;4948428;28;97590;-82
2023/10/26 10:51:28;;;;;;;12.38;9.60;;;;;;;17.11;71.01;99118.72;4949219;28;98612;-82
2023/10/26 10:53:54;;;;;;;13.02;10.65;;;;;;;17.30;70.13;99132.13;4948980;28;99578;-83
2023/10/26 10:56:23;;;;;;;15.25;11.38;;;;;;;16.97;71.27;99129.75;4954091;28;98998;-83
2023/10/26 10:58:50;;;;;;;14.88;11.20;;;;;;;17.00;72.04;99126.84;4950865;28;97525;-80
2023/10/26 11:01:20;;;;;;;14.32;11.32;;;;;;;17.26;70.87;99119.22;4952290;28;96927;-83
2023/10/26 11:03:47;;;;;;;14.20;11.07;;;;;;;17.23;71.20;99127.47;4949772;28;98851;-87
2023/10/26 11:06:16;;;;;;;18.13;13.32;;;;;;;17.30;69.84;99129.47;4953377;28;96824;-86
2023/10/26 11:08:45;;;;;;;14.93;12.00;;;;;;;17.39;69.50;99136.66;4955397;28;96754;-88
2023/10/26 11:11:26;;;;;;;16.77;12.68;;;;;;;17.37;69.51;99133.28;4953550;28;97209;-85
2023/10/26 11:14:06;;;;;;;14.90;11.38;;;;;;;17.26;68.97;99133.41;4952691;28;101309;-85
2023/10/26 11:16:35;;;;;;;16.27;12.35;;;;;;;17.37;68.96;99135.09;4949917;28;98780;-84
2023/10/26 11:19:03;;;;;;;21.30;12.98;;;;;;;17.16;70.59;99135.19;4951398;28;96855;-84
2023/10/26 11:21:29;;;;;;;18.70;12.55;;;;;;;17.25;70.62;99134.38;4949074;28;97526;-78